sensor_id;sensor_type;location;lat;lon;timestamp;pressure;altitude;pressure_sealevel;temperature;humidity
1926;BME280;964;42.606;23.588;2023-02-21T00:00:29;94921.53;;;27.93;20.02
1926;BME280;964;42.606;23.588;2023-02-21T00:03:13;94928.38;;;27.97;20.10
1926;BME280;964;42.606;23.588;2023-02-21T00:05:57;94925.50;;;28.01;19.72
1926;BME280;964;42.606;23.588;2023-02-21T00:08:43;94921.84;;;27.86;19.94
1926;BME280;964;42.606;23.588;2023-02-21T00:11:27;94931.84;;;28.07;19.94
1926;BME280;964;42.606;23.588;2023-02-21T00:14:10;94935.25;;;27.31;20.44
1926;BME280;964;42.606;23.588;2023-02-21T00:16:54;94933.66;;;28.01;20.04
1926;BME280;964;42.606;23.588;2023-02-21T00:19:39;94923.13;;;28.48;19.19
1926;BME280;964;42.606;23.588;2023-02-21T00:22:24;94918.59;;;28.45;19.32
1926;BME280;964;42.606;23.588;2023-02-21T00:25:09;94935.09;;;27.65;20.18
1926;BME280;964;42.606;23.588;2023-02-21T00:27:53;94921.88;;;28.04;19.93
1926;BME280;964;42.606;23.588;2023-02-21T00:30:36;94918.56;;;28.18;19.67
1926;BME280;964;42.606;23.588;2023-02-21T00:33:20;94917.66;;;28.30;19.68
1926;BME280;964;42.606;23.588;2023-02-21T00:36:05;94907.00;;;27.87;19.81
1926;BME280;964;42.606;23.588;2023-02-21T00:38:49;94897.75;;;27.84;19.88
1926;BME280;964;42.606;23.588;2023-02-21T00:41:34;94895.06;;;28.02;19.90
1926;BME280;964;42.606;23.588;2023-02-21T00:44:18;94884.22;;;28.11;20.01
1926;BME280;964;42.606;23.588;2023-02-21T00:47:02;94879.31;;;27.88;19.79
1926;BME280;964;42.606;23.588;2023-02-21T00:49:47;94884.34;;;28.26;19.46
1926;BME280;964;42.606;23.588;2023-02-21T00:52:30;94883.13;;;28.18;19.85
1926;BME280;964;42.606;23.588;2023-02-21T00:55:14;94878.19;;;27.49;20.08
1926;BME280;964;42.606;23.588;2023-02-21T00:58:00;94880.06;;;27.80;20.31
1926;BME280;964;42.606;23.588;2023-02-21T01:00:44;94867.09;;;27.44;20.38
1926;BME280;964;42.606;23.588;2023-02-21T01:03:28;94867.69;;;28.15;19.57
1926;BME280;964;42.606;23.588;2023-02-21T01:06:12;94877.97;;;27.93;19.77
1926;BME280;964;42.606;23.588;2023-02-21T01:08:56;94863.84;;;27.67;20.33
1926;BME280;964;42.606;23.588;2023-02-21T01:11:40;94864.38;;;26.73;21.02
1926;BME280;964;42.606;23.588;2023-02-21T01:14:25;94863.66;;;26.29;21.34
1926;BME280;964;42.606;23.588;2023-02-21T01:17:10;94865.94;;;25.96;21.67
1926;BME280;964;42.606;23.588;2023-02-21T01:19:54;94851.69;;;26.05;21.76
1926;BME280;964;42.606;23.588;2023-02-21T01:22:37;94855.53;;;25.35;22.45
1926;BME280;964;42.606;23.588;2023-02-21T01:25:21;94846.44;;;25.04;22.65
1926;BME280;964;42.606;23.588;2023-02-21T01:28:05;94830.41;;;26.25;21.58
1926;BME280;964;42.606;23.588;2023-02-21T01:30:51;94824.44;;;26.17;21.62
1926;BME280;964;42.606;23.588;2023-02-21T01:33:37;94825.66;;;26.38;21.40
1926;BME280;964;42.606;23.588;2023-02-21T01:36:21;94822.34;;;26.65;21.32
1926;BME280;964;42.606;23.588;2023-02-21T01:39:05;94821.25;;;27.33;20.61
1926;BME280;964;42.606;23.588;2023-02-21T01:41:49;94825.06;;;27.36;20.44
1926;BME280;964;42.606;23.588;2023-02-21T01:44:37;94822.25;;;26.77;20.89
1926;BME280;964;42.606;23.588;2023-02-21T01:47:23;94823.38;;;27.38;20.68
1926;BME280;964;42.606;23.588;2023-02-21T01:50:13;94822.44;;;27.23;20.69
1926;BME280;964;42.606;23.588;2023-02-21T01:53:00;94823.22;;;26.93;20.60
1926;BME280;964;42.606;23.588;2023-02-21T01:55:46;94825.75;;;27.18;20.62
1926;BME280;964;42.606;23.588;2023-02-21T01:58:31;94805.75;;;27.52;20.11
1926;BME280;964;42.606;23.588;2023-02-21T02:01:25;94811.56;;;27.23;20.42
1926;BME280;964;42.606;23.588;2023-02-21T02:04:14;94801.66;;;27.56;20.20
1926;BME280;964;42.606;23.588;2023-02-21T02:06:59;94794.22;;;27.48;20.34
1926;BME280;964;42.606;23.588;2023-02-21T02:09:43;94788.00;;;27.38;20.13
1926;BME280;964;42.606;23.588;2023-02-21T02:13:02;94781.72;;;27.50;20.21
1926;BME280;964;42.606;23.588;2023-02-21T02:15:40;94770.53;;;27.75;19.70
1926;BME280;964;42.606;23.588;2023-02-21T02:18:45;94779.97;;;27.35;20.27
1926;BME280;964;42.606;23.588;2023-02-21T02:27:42;94771.41;;;26.56;20.88
1926;BME280;964;42.606;23.588;2023-02-21T02:30:28;94762.91;;;27.34;20.17
1926;BME280;964;42.606;23.588;2023-02-21T02:33:20;94764.13;;;27.42;20.10
1926;BME280;964;42.606;23.588;2023-02-21T02:35:53;94760.47;;;27.36;20.05
1926;BME280;964;42.606;23.588;2023-02-21T02:38:26;94759.94;;;27.50;20.39
1926;BME280;964;42.606;23.588;2023-02-21T02:41:02;94761.22;;;27.37;20.14
1926;BME280;964;42.606;23.588;2023-02-21T02:43:31;94756.88;;;27.48;20.02
1926;BME280;964;42.606;23.588;2023-02-21T02:46:04;94768.56;;;27.00;20.55
1926;BME280;964;42.606;23.588;2023-02-21T02:48:36;94765.28;;;27.14;20.40
1926;BME280;964;42.606;23.588;2023-02-21T02:51:07;94767.06;;;27.08;20.66
1926;BME280;964;42.606;23.588;2023-02-21T02:53:35;94773.38;;;26.87;20.53
1926;BME280;964;42.606;23.588;2023-02-21T02:56:03;94769.16;;;26.95;20.32
1926;BME280;964;42.606;23.588;2023-02-21T02:58:33;94768.91;;;27.20;20.18
1926;BME280;964;42.606;23.588;2023-02-21T03:01:13;94771.31;;;26.78;20.52
1926;BME280;964;42.606;23.588;2023-02-21T03:03:51;94764.19;;;27.02;20.46
1926;BME280;964;42.606;23.588;2023-02-21T03:06:29;94770.66;;;26.87;20.51
1926;BME280;964;42.606;23.588;2023-02-21T03:09:07;94766.63;;;26.69;20.83
1926;BME280;964;42.606;23.588;2023-02-21T03:11:38;94769.22;;;27.22;20.62
1926;BME280;964;42.606;23.588;2023-02-21T03:14:12;94767.78;;;27.75;19.67
1926;BME280;964;42.606;23.588;2023-02-21T03:16:43;94755.22;;;27.78;19.77
1926;BME280;964;42.606;23.588;2023-02-21T03:19:13;94767.97;;;27.05;20.32
1926;BME280;964;42.606;23.588;2023-02-21T03:21:47;94776.03;;;26.77;20.14
1926;BME280;964;42.606;23.588;2023-02-21T03:24:16;94766.34;;;27.16;20.36
1926;BME280;964;42.606;23.588;2023-02-21T03:26:46;94770.13;;;27.19;20.11
1926;BME280;964;42.606;23.588;2023-02-21T03:29:15;94760.47;;;27.36;20.26
1926;BME280;964;42.606;23.588;2023-02-21T03:31:46;94768.88;;;26.71;20.50
1926;BME280;964;42.606;23.588;2023-02-21T03:34:14;94766.88;;;27.60;19.96
1926;BME280;964;42.606;23.588;2023-02-21T03:36:41;94764.25;;;27.20;20.35
1926;BME280;964;42.606;23.588;2023-02-21T03:39:09;94758.25;;;27.53;20.09
1926;BME280;964;42.606;23.588;2023-02-21T03:41:36;94759.94;;;27.87;19.58
1926;BME280;964;42.606;23.588;2023-02-21T03:44:03;94770.13;;;27.10;20.49
1926;BME280;964;42.606;23.588;2023-02-21T03:46:30;94761.41;;;27.88;19.79
1926;BME280;964;42.606;23.588;2023-02-21T03:48:57;94765.03;;;26.81;20.59
1926;BME280;964;42.606;23.588;2023-02-21T03:51:23;94762.19;;;27.52;19.83
1926;BME280;964;42.606;23.588;2023-02-21T03:53:50;94765.06;;;27.48;19.82
1926;BME280;964;42.606;23.588;2023-02-21T03:56:18;94769.41;;;28.37;19.06
1926;BME280;964;42.606;23.588;2023-02-21T03:58:45;94779.25;;;26.54;20.31
1926;BME280;964;42.606;23.588;2023-02-21T04:01:11;94766.72;;;27.73;19.62
1926;BME280;964;42.606;23.588;2023-02-21T04:03:38;94769.59;;;28.15;19.45
1926;BME280;964;42.606;23.588;2023-02-21T04:06:05;94770.81;;;28.23;19.46
1926;BME280;964;42.606;23.588;2023-02-21T04:08:31;94774.44;;;27.93;19.40
1926;BME280;964;42.606;23.588;2023-02-21T04:10:58;94784.97;;;27.36;20.11
1926;BME280;964;42.606;23.588;2023-02-21T04:13:26;94787.72;;;27.54;19.82
1926;BME280;964;42.606;23.588;2023-02-21T04:15:53;94784.91;;;26.69;20.31
1926;BME280;964;42.606;23.588;2023-02-21T04:18:19;94772.94;;;27.73;19.53
1926;BME280;964;42.606;23.588;2023-02-21T04:20:46;94788.88;;;27.26;19.98
1926;BME280;964;42.606;23.588;2023-02-21T04:23:16;94787.16;;;27.50;19.94
1926;BME280;964;42.606;23.588;2023-02-21T04:25:43;94780.19;;;28.22;19.32
1926;BME280;964;42.606;23.588;2023-02-21T04:28:10;94790.47;;;27.45;19.77
1926;BME280;964;42.606;23.588;2023-02-21T04:30:38;94793.34;;;28.23;19.55
1926;BME280;964;42.606;23.588;2023-02-21T04:33:04;94800.47;;;28.21;19.05
1926;BME280;964;42.606;23.588;2023-02-21T04:35:32;94793.22;;;27.05;20.04
1926;BME280;964;42.606;23.588;2023-02-21T04:37:58;94790.34;;;27.85;19.81
1926;BME280;964;42.606;23.588;2023-02-21T04:40:25;94810.63;;;27.17;20.11
1926;BME280;964;42.606;23.588;2023-02-21T04:42:51;94798.66;;;28.09;19.65
1926;BME280;964;42.606;23.588;2023-02-21T04:45:18;94801.38;;;27.91;19.61
1926;BME280;964;42.606;23.588;2023-02-21T04:47:46;94798.94;;;28.02;19.38
1926;BME280;964;42.606;23.588;2023-02-21T04:50:13;94784.78;;;26.81;20.60
1926;BME280;964;42.606;23.588;2023-02-21T04:52:39;94780.19;;;27.58;19.65
1926;BME280;964;42.606;23.588;2023-02-21T04:55:07;94777.47;;;27.76;19.93
1926;BME280;964;42.606;23.588;2023-02-21T04:57:37;94772.63;;;27.71;19.63
1926;BME280;964;42.606;23.588;2023-02-21T05:00:04;94770.19;;;27.46;20.27
1926;BME280;964;42.606;23.588;2023-02-21T05:02:32;94779.13;;;27.74;19.63
1926;BME280;964;42.606;23.588;2023-02-21T05:05:00;94785.88;;;27.24;20.00
1926;BME280;964;42.606;23.588;2023-02-21T05:07:27;94785.56;;;27.31;19.95
1926;BME280;964;42.606;23.588;2023-02-21T05:09:54;94782.03;;;27.61;20.12
1926;BME280;964;42.606;23.588;2023-02-21T05:12:20;94785.75;;;26.26;20.96
1926;BME280;964;42.606;23.588;2023-02-21T05:14:47;94788.78;;;26.90;20.68
1926;BME280;964;42.606;23.588;2023-02-21T05:17:14;94781.69;;;26.30;20.71
1926;BME280;964;42.606;23.588;2023-02-21T05:19:40;94772.06;;;26.17;21.04
1926;BME280;964;42.606;23.588;2023-02-21T05:22:08;94786.25;;;25.43;21.55
1926;BME280;964;42.606;23.588;2023-02-21T05:24:55;94781.66;;;25.65;21.72
1926;BME280;964;42.606;23.588;2023-02-21T05:27:22;94778.38;;;25.70;21.57
1926;BME280;964;42.606;23.588;2023-02-21T05:29:50;94784.44;;;27.01;20.17
1926;BME280;964;42.606;23.588;2023-02-21T05:32:20;94780.94;;;26.92;20.36
1926;BME280;964;42.606;23.588;2023-02-21T05:34:46;94788.69;;;26.71;20.61
1926;BME280;964;42.606;23.588;2023-02-21T05:37:16;94790.81;;;26.76;20.40
1926;BME280;964;42.606;23.588;2023-02-21T05:39:45;94791.88;;;27.10;20.39
1926;BME280;964;42.606;23.588;2023-02-21T05:42:12;94788.28;;;27.40;20.31
1926;BME280;964;42.606;23.588;2023-02-21T05:44:39;94777.94;;;27.57;20.12
1926;BME280;964;42.606;23.588;2023-02-21T05:47:05;94783.44;;;29.52;18.81
1926;BME280;964;42.606;23.588;2023-02-21T05:49:32;94762.34;;;31.08;17.32
1926;BME280;964;42.606;23.588;2023-02-21T05:51:59;94769.69;;;32.43;16.89
1926;BME280;964;42.606;23.588;2023-02-21T05:54:27;94767.38;;;31.65;16.70
1926;BME280;964;42.606;23.588;2023-02-21T05:56:54;94757.94;;;32.69;16.43
1926;BME280;964;42.606;23.588;2023-02-21T05:59:20;94754.50;;;32.74;16.40
1926;BME280;964;42.606;23.588;2023-02-21T06:01:48;94766.66;;;31.90;16.82
1926;BME280;964;42.606;23.588;2023-02-21T06:04:15;94760.28;;;32.24;16.49
1926;BME280;964;42.606;23.588;2023-02-21T06:06:42;94767.34;;;33.25;16.22
1926;BME280;964;42.606;23.588;2023-02-21T06:09:09;94768.56;;;33.18;16.60
1926;BME280;964;42.606;23.588;2023-02-21T06:11:38;94764.59;;;32.88;16.75
1926;BME280;964;42.606;23.588;2023-02-21T06:14:07;94766.94;;;33.48;15.80
1926;BME280;964;42.606;23.588;2023-02-21T06:16:35;94771.28;;;34.47;15.60
1926;BME280;964;42.606;23.588;2023-02-21T06:19:02;94766.53;;;35.15;14.45
1926;BME280;964;42.606;23.588;2023-02-21T06:21:29;94762.59;;;35.79;14.19
1926;BME280;964;42.606;23.588;2023-02-21T06:23:56;94762.72;;;35.34;14.12
1926;BME280;964;42.606;23.588;2023-02-21T06:26:23;94767.22;;;38.04;13.04
1926;BME280;964;42.606;23.588;2023-02-21T06:28:51;94777.97;;;38.95;12.71
1926;BME280;964;42.606;23.588;2023-02-21T06:31:19;94756.72;;;39.56;12.24
1926;BME280;964;42.606;23.588;2023-02-21T06:33:47;94753.72;;;40.40;11.90
1926;BME280;964;42.606;23.588;2023-02-21T06:36:16;94754.84;;;40.45;11.54
1926;BME280;964;42.606;23.588;2023-02-21T06:38:43;94761.28;;;40.94;11.39
1926;BME280;964;42.606;23.588;2023-02-21T06:41:10;94767.59;;;39.54;12.25
1926;BME280;964;42.606;23.588;2023-02-21T06:43:39;94765.16;;;39.77;12.36
1926;BME280;964;42.606;23.588;2023-02-21T06:46:07;94769.06;;;40.21;12.18
1926;BME280;964;42.606;23.588;2023-02-21T06:48:34;94775.03;;;39.19;12.28
1926;BME280;964;42.606;23.588;2023-02-21T06:51:01;94771.91;;;39.81;12.51
1926;BME280;964;42.606;23.588;2023-02-21T06:53:29;94761.25;;;41.64;10.98
1926;BME280;964;42.606;23.588;2023-02-21T06:55:56;94753.44;;;41.98;10.86
1926;BME280;964;42.606;23.588;2023-02-21T06:58:23;94766.75;;;39.85;11.89
1926;BME280;964;42.606;23.588;2023-02-21T07:00:49;94757.13;;;42.52;11.19
1926;BME280;964;42.606;23.588;2023-02-21T07:03:17;94760.09;;;41.31;11.33
1926;BME280;964;42.606;23.588;2023-02-21T07:05:44;94758.50;;;41.79;11.66
1926;BME280;964;42.606;23.588;2023-02-21T07:08:11;94761.75;;;41.55;11.44
1926;BME280;964;42.606;23.588;2023-02-21T07:10:37;94754.00;;;42.04;11.64
1926;BME280;964;42.606;23.588;2023-02-21T07:13:04;94751.59;;;42.08;10.88
1926;BME280;964;42.606;23.588;2023-02-21T07:15:31;94748.41;;;41.61;11.85
1926;BME280;964;42.606;23.588;2023-02-21T07:17:57;94748.41;;;42.48;11.14
1926;BME280;964;42.606;23.588;2023-02-21T07:20:25;94747.59;;;42.25;11.54
1926;BME280;964;42.606;23.588;2023-02-21T07:22:52;94751.91;;;41.82;10.87
1926;BME280;964;42.606;23.588;2023-02-21T07:25:21;94743.56;;;42.48;11.50
1926;BME280;964;42.606;23.588;2023-02-21T07:27:48;94745.78;;;42.35;11.19
1926;BME280;964;42.606;23.588;2023-02-21T07:30:17;94744.59;;;41.79;10.83
1926;BME280;964;42.606;23.588;2023-02-21T07:32:43;94741.94;;;41.66;11.19
1926;BME280;964;42.606;23.588;2023-02-21T07:35:11;94742.81;;;40.63;11.69
1926;BME280;964;42.606;23.588;2023-02-21T07:37:39;94734.13;;;42.74;11.03
1926;BME280;964;42.606;23.588;2023-02-21T07:40:06;94733.03;;;42.03;11.53
1926;BME280;964;42.606;23.588;2023-02-21T07:42:33;94732.31;;;42.11;10.83
1926;BME280;964;42.606;23.588;2023-02-21T07:44:59;94728.41;;;43.03;10.42
1926;BME280;964;42.606;23.588;2023-02-21T07:47:26;94735.44;;;43.19;10.46
1926;BME280;964;42.606;23.588;2023-02-21T07:49:53;94733.53;;;43.59;10.54
1926;BME280;964;42.606;23.588;2023-02-21T07:52:20;94735.81;;;42.92;11.19
1926;BME280;964;42.606;23.588;2023-02-21T07:54:49;94732.03;;;42.29;11.03
1926;BME280;964;42.606;23.588;2023-02-21T07:57:16;94723.72;;;43.28;10.83
1926;BME280;964;42.606;23.588;2023-02-21T07:59:43;94726.78;;;43.70;10.97
1926;BME280;964;42.606;23.588;2023-02-21T08:02:10;94706.81;;;44.85;10.23
1926;BME280;964;42.606;23.588;2023-02-21T08:04:37;94702.47;;;45.17;10.23
1926;BME280;964;42.606;23.588;2023-02-21T08:07:04;94696.69;;;46.01;9.57
1926;BME280;964;42.606;23.588;2023-02-21T08:09:31;94697.75;;;46.05;10.30
1926;BME280;964;42.606;23.588;2023-02-21T08:11:59;94695.13;;;46.34;9.92
1926;BME280;964;42.606;23.588;2023-02-21T08:14:26;94693.44;;;45.77;10.36
1926;BME280;964;42.606;23.588;2023-02-21T08:16:52;94698.16;;;44.99;10.01
1926;BME280;964;42.606;23.588;2023-02-21T08:19:19;94701.69;;;44.42;10.36
1926;BME280;964;42.606;23.588;2023-02-21T08:21:46;94712.50;;;44.06;10.62
1926;BME280;964;42.606;23.588;2023-02-21T08:24:13;94716.66;;;42.96;10.54
1926;BME280;964;42.606;23.588;2023-02-21T08:26:41;94711.78;;;42.29;11.00
1926;BME280;964;42.606;23.588;2023-02-21T08:29:11;94725.38;;;39.35;12.42
1926;BME280;964;42.606;23.588;2023-02-21T08:31:39;94720.22;;;39.65;12.12
1926;BME280;964;42.606;23.588;2023-02-21T08:34:06;94719.81;;;39.74;12.19
1926;BME280;964;42.606;23.588;2023-02-21T08:36:35;94726.44;;;38.42;13.00
1926;BME280;964;42.606;23.588;2023-02-21T08:39:03;94732.66;;;37.00;13.78
1926;BME280;964;42.606;23.588;2023-02-21T08:41:34;94720.97;;;38.36;12.93
1926;BME280;964;42.606;23.588;2023-02-21T08:44:01;94707.53;;;39.04;12.91
1926;BME280;964;42.606;23.588;2023-02-21T08:46:29;94699.84;;;40.09;11.87
1926;BME280;964;42.606;23.588;2023-02-21T08:48:56;94705.78;;;39.93;12.09
1926;BME280;964;42.606;23.588;2023-02-21T08:51:23;94707.03;;;39.45;12.42
1926;BME280;964;42.606;23.588;2023-02-21T08:53:50;94707.53;;;39.56;12.62
1926;BME280;964;42.606;23.588;2023-02-21T08:56:17;94704.16;;;39.97;12.42
1926;BME280;964;42.606;23.588;2023-02-21T08:58:44;94702.78;;;39.91;12.47
1926;BME280;964;42.606;23.588;2023-02-21T09:01:10;94700.28;;;40.00;12.04
1926;BME280;964;42.606;23.588;2023-02-21T09:03:39;94700.53;;;40.57;12.49
1926;BME280;964;42.606;23.588;2023-02-21T09:06:06;94703.41;;;40.93;11.79
1926;BME280;964;42.606;23.588;2023-02-21T09:08:33;94699.00;;;40.14;12.51
1926;BME280;964;42.606;23.588;2023-02-21T09:11:01;94694.25;;;40.56;11.87
1926;BME280;964;42.606;23.588;2023-02-21T09:13:29;94692.00;;;40.55;12.37
1926;BME280;964;42.606;23.588;2023-02-21T09:15:57;94682.09;;;41.88;12.18
1926;BME280;964;42.606;23.588;2023-02-21T09:18:24;94686.09;;;42.23;11.27
1926;BME280;964;42.606;23.588;2023-02-21T09:20:52;94673.34;;;42.58;11.87
1926;BME280;964;42.606;23.588;2023-02-21T09:23:22;94665.22;;;44.08;11.07
1926;BME280;964;42.606;23.588;2023-02-21T09:25:50;94673.69;;;42.99;11.04
1926;BME280;964;42.606;23.588;2023-02-21T09:28:17;94672.56;;;42.27;11.60
1926;BME280;964;42.606;23.588;2023-02-21T09:30:44;94678.06;;;42.04;11.40
1926;BME280;964;42.606;23.588;2023-02-21T09:33:11;94666.16;;;41.88;11.49
1926;BME280;964;42.606;23.588;2023-02-21T09:35:38;94670.81;;;42.08;11.66
1926;BME280;964;42.606;23.588;2023-02-21T09:38:06;94661.81;;;42.38;11.65
1926;BME280;964;42.606;23.588;2023-02-21T09:40:36;94659.59;;;42.37;11.13
1926;BME280;964;42.606;23.588;2023-02-21T09:43:10;94648.22;;;43.18;11.18
1926;BME280;964;42.606;23.588;2023-02-21T09:45:39;94656.97;;;43.07;11.45
1926;BME280;964;42.606;23.588;2023-02-21T09:48:11;94649.19;;;42.68;10.77
1926;BME280;964;42.606;23.588;2023-02-21T09:50:41;94651.41;;;41.37;12.12
1926;BME280;964;42.606;23.588;2023-02-21T09:53:13;94650.25;;;42.12;12.02
1926;BME280;964;42.606;23.588;2023-02-21T09:55:42;94650.38;;;41.98;12.19
1926;BME280;964;42.606;23.588;2023-02-21T09:58:11;94657.66;;;42.09;10.99
1926;BME280;964;42.606;23.588;2023-02-21T10:00:39;94645.09;;;41.80;11.54
1926;BME280;964;42.606;23.588;2023-02-21T10:03:42;94645.03;;;42.16;11.67
1926;BME280;964;42.606;23.588;2023-02-21T10:06:19;94642.63;;;42.20;10.91
1926;BME280;964;42.606;23.588;2023-02-21T10:08:56;94629.78;;;42.01;11.02
1926;BME280;964;42.606;23.588;2023-02-21T10:11:32;94634.44;;;41.48;11.66
1926;BME280;964;42.606;23.588;2023-02-21T10:14:12;94632.78;;;41.17;12.40
1926;BME280;964;42.606;23.588;2023-02-21T10:16:46;94629.38;;;41.90;11.55
1926;BME280;964;42.606;23.588;2023-02-21T10:19:20;94623.38;;;41.71;11.84
1926;BME280;964;42.606;23.588;2023-02-21T10:21:48;94615.47;;;42.05;11.73
1926;BME280;964;42.606;23.588;2023-02-21T10:24:19;94605.69;;;42.42;11.28
1926;BME280;964;42.606;23.588;2023-02-21T10:26:52;94604.41;;;42.66;11.02
1926;BME280;964;42.606;23.588;2023-02-21T10:29:26;94595.25;;;43.03;10.74
1926;BME280;964;42.606;23.588;2023-02-21T10:31:58;94589.38;;;43.46;10.82
1926;BME280;964;42.606;23.588;2023-02-21T10:34:28;94591.22;;;42.36;11.42
1926;BME280;964;42.606;23.588;2023-02-21T10:36:57;94573.88;;;43.06;11.56
1926;BME280;964;42.606;23.588;2023-02-21T10:39:38;94582.09;;;42.28;11.34
1926;BME280;964;42.606;23.588;2023-02-21T10:42:12;94579.97;;;43.12;10.81
1926;BME280;964;42.606;23.588;2023-02-21T10:44:42;94567.97;;;43.34;11.32
1926;BME280;964;42.606;23.588;2023-02-21T10:47:14;94564.25;;;43.46;10.99
1926;BME280;964;42.606;23.588;2023-02-21T10:49:47;94566.22;;;42.98;10.37
1926;BME280;964;42.606;23.588;2023-02-21T10:52:18;94564.75;;;43.05;11.23
1926;BME280;964;42.606;23.588;2023-02-21T10:55:00;94563.28;;;41.90;11.07
1926;BME280;964;42.606;23.588;2023-02-21T10:57:27;94559.13;;;41.46;11.65
1926;BME280;964;42.606;23.588;2023-02-21T10:59:57;94556.03;;;41.29;11.44
1926;BME280;964;42.606;23.588;2023-02-21T11:02:28;94551.34;;;41.52;11.72
1926;BME280;964;42.606;23.588;2023-02-21T11:05:08;94551.38;;;40.80;12.04
1926;BME280;964;42.606;23.588;2023-02-21T11:07:35;94546.44;;;40.58;12.27
1926;BME280;964;42.606;23.588;2023-02-21T11:10:23;94536.81;;;40.67;12.06
1926;BME280;964;42.606;23.588;2023-02-21T11:13:05;94530.22;;;40.77;12.20
1926;BME280;964;42.606;23.588;2023-02-21T11:15:32;94523.66;;;40.39;11.84
1926;BME280;964;42.606;23.588;2023-02-21T11:18:05;94513.50;;;40.41;12.20
1926;BME280;964;42.606;23.588;2023-02-21T11:20:36;94506.25;;;41.02;12.60
1926;BME280;964;42.606;23.588;2023-02-21T11:23:03;94502.78;;;41.98;12.63
1926;BME280;964;42.606;23.588;2023-02-21T11:25:39;94510.38;;;41.90;11.66
1926;BME280;964;42.606;23.588;2023-02-21T11:28:17;94502.22;;;41.11;11.89
1926;BME280;964;42.606;23.588;2023-02-21T11:30:48;94493.50;;;42.19;11.84
1926;BME280;964;42.606;23.588;2023-02-21T11:33:19;94493.63;;;40.58;11.77
1926;BME280;964;42.606;23.588;2023-02-21T11:35:48;94496.66;;;41.11;11.59
1926;BME280;964;42.606;23.588;2023-02-21T11:38:33;94478.72;;;40.48;11.54
1926;BME280;964;42.606;23.588;2023-02-21T11:41:03;94471.53;;;42.53;11.85
1926;BME280;964;42.606;23.588;2023-02-21T11:43:44;94451.59;;;43.19;11.16
1926;BME280;964;42.606;23.588;2023-02-21T11:46:19;94446.09;;;43.04;10.57
1926;BME280;964;42.606;23.588;2023-02-21T11:48:55;94444.53;;;43.18;9.93
1926;BME280;964;42.606;23.588;2023-02-21T11:51:39;94433.59;;;43.45;10.23
1926;BME280;964;42.606;23.588;2023-02-21T11:54:07;94439.22;;;42.50;10.29
1926;BME280;964;42.606;23.588;2023-02-21T11:56:43;94428.78;;;43.38;9.54
1926;BME280;964;42.606;23.588;2023-02-21T11:59:23;94428.53;;;44.01;9.75
1926;BME280;964;42.606;23.588;2023-02-21T12:02:01;94425.34;;;43.55;10.27
1926;BME280;964;42.606;23.588;2023-02-21T12:04:43;94416.28;;;43.14;10.35
1926;BME280;964;42.606;23.588;2023-02-21T12:07:16;94429.75;;;42.93;10.37
1926;BME280;964;42.606;23.588;2023-02-21T12:09:54;94403.63;;;43.21;10.06
1926;BME280;964;42.606;23.588;2023-02-21T12:12:34;94408.94;;;43.59;9.74
1926;BME280;964;42.606;23.588;2023-02-21T12:15:19;94405.50;;;41.55;10.03
1926;BME280;964;42.606;23.588;2023-02-21T12:17:59;94403.28;;;41.69;10.38
1926;BME280;964;42.606;23.588;2023-02-21T12:20:42;94387.81;;;42.83;9.81
1926;BME280;964;42.606;23.588;2023-02-21T12:23:18;94381.53;;;42.75;9.56
1926;BME280;964;42.606;23.588;2023-02-21T12:25:55;94394.75;;;41.74;9.78
1926;BME280;964;42.606;23.588;2023-02-21T12:28:32;94383.25;;;43.03;9.99
1926;BME280;964;42.606;23.588;2023-02-21T12:31:19;94380.22;;;42.29;10.02
1926;BME280;964;42.606;23.588;2023-02-21T12:33:57;94372.22;;;42.25;9.82
1926;BME280;964;42.606;23.588;2023-02-21T12:36:42;94361.53;;;42.54;9.83
1926;BME280;964;42.606;23.588;2023-02-21T12:39:26;94371.31;;;41.01;10.40
1926;BME280;964;42.606;23.588;2023-02-21T12:42:13;94358.69;;;42.06;10.36
1926;BME280;964;42.606;23.588;2023-02-21T12:44:53;94355.56;;;42.65;10.01
1926;BME280;964;42.606;23.588;2023-02-21T12:47:26;94355.50;;;42.33;9.75
1926;BME280;964;42.606;23.588;2023-02-21T12:49:56;94353.50;;;42.03;10.82
1926;BME280;964;42.606;23.588;2023-02-21T12:52:27;94362.78;;;41.15;11.01
1926;BME280;964;42.606;23.588;2023-02-21T12:55:01;94358.19;;;41.93;10.53
1926;BME280;964;42.606;23.588;2023-02-21T12:57:31;94345.00;;;42.88;9.75
1926;BME280;964;42.606;23.588;2023-02-21T13:00:12;94344.94;;;42.24;10.50
1926;BME280;964;42.606;23.588;2023-02-21T13:02:50;94339.09;;;41.59;10.61
1926;BME280;964;42.606;23.588;2023-02-21T13:05:28;94345.38;;;41.37;10.44
1926;BME280;964;42.606;23.588;2023-02-21T13:08:00;94362.00;;;40.91;10.46
1926;BME280;964;42.606;23.588;2023-02-21T13:10:31;94353.16;;;41.00;11.24
1926;BME280;964;42.606;23.588;2023-02-21T13:13:03;94345.72;;;41.03;10.73
1926;BME280;964;42.606;23.588;2023-02-21T13:15:35;94344.44;;;41.11;10.60
1926;BME280;964;42.606;23.588;2023-02-21T13:18:06;94340.59;;;41.52;10.56
1926;BME280;964;42.606;23.588;2023-02-21T13:20:35;94313.13;;;43.73;9.94
1926;BME280;964;42.606;23.588;2023-02-21T13:23:37;94318.69;;;43.07;10.03
1926;BME280;964;42.606;23.588;2023-02-21T13:26:36;94326.31;;;43.98;9.65
1926;BME280;964;42.606;23.588;2023-02-21T13:29:13;94324.09;;;42.32;9.78
1926;BME280;964;42.606;23.588;2023-02-21T13:31:44;94314.69;;;43.67;9.94
1926;BME280;964;42.606;23.588;2023-02-21T13:34:16;94310.19;;;44.06;9.67
1926;BME280;964;42.606;23.588;2023-02-21T13:36:45;94318.63;;;41.94;10.14
1926;BME280;964;42.606;23.588;2023-02-21T13:39:14;94323.41;;;42.09;10.14
1926;BME280;964;42.606;23.588;2023-02-21T13:41:44;94320.53;;;41.54;10.34
1926;BME280;964;42.606;23.588;2023-02-21T13:44:16;94322.03;;;41.40;10.45
1926;BME280;964;42.606;23.588;2023-02-21T13:47:12;94333.25;;;40.89;11.36
1926;BME280;964;42.606;23.588;2023-02-21T13:49:48;94322.38;;;41.36;10.54
1926;BME280;964;42.606;23.588;2023-02-21T13:52:49;94311.22;;;43.34;9.98
1926;BME280;964;42.606;23.588;2023-02-21T13:55:26;94330.25;;;40.21;10.78
1926;BME280;964;42.606;23.588;2023-02-21T13:58:29;94314.34;;;40.72;10.97
1926;BME280;964;42.606;23.588;2023-02-21T14:01:14;94305.69;;;41.36;11.10